sensor_id;sensor_type;location;lat;lon;timestamp;temperature;humidity
50067;DHT22;35952;52.524;13.340;2023-04-06T00:00:53;4.80;99.90
50067;DHT22;35952;52.524;13.340;2023-04-06T00:03:19;4.80;99.90
50067;DHT22;35952;52.524;13.340;2023-04-06T00:05:46;4.80;99.90
50067;DHT22;35952;52.524;13.340;2023-04-06T00:08:12;5.00;99.90
50067;DHT22;35952;52.524;13.340;2023-04-06T00:10:37;4.90;99.90
50067;DHT22;35952;52.524;13.340;2023-04-06T00:13:05;4.80;99.90
50067;DHT22;35952;52.524;13.340;2023-04-06T00:15:30;4.70;99.90
50067;DHT22;35952;52.524;13.340;2023-04-06T00:17:56;4.80;99.90
50067;DHT22;35952;52.524;13.340;2023-04-06T00:20:22;5.00;99.90
50067;DHT22;35952;52.524;13.340;2023-04-06T00:22:48;4.80;99.90
50067;DHT22;35952;52.524;13.340;2023-04-06T00:25:13;4.80;99.90
50067;DHT22;35952;52.524;13.340;2023-04-06T00:27:41;4.80;99.90
50067;DHT22;35952;52.524;13.340;2023-04-06T00:30:07;4.90;99.90
50067;DHT22;35952;52.524;13.340;2023-04-06T00:32:33;4.90;99.90
50067;DHT22;35952;52.524;13.340;2023-04-06T00:34:59;4.90;99.90
50067;DHT22;35952;52.524;13.340;2023-04-06T00:37:24;4.90;99.90
50067;DHT22;35952;52.524;13.340;2023-04-06T00:39:50;4.90;99.90
50067;DHT22;35952;52.524;13.340;2023-04-06T00:42:18;4.90;99.90
50067;DHT22;35952;52.524;13.340;2023-04-06T00:45:00;5.00;99.90
50067;DHT22;35952;52.524;13.340;2023-04-06T00:47:26;4.80;99.90
50067;DHT22;35952;52.524;13.340;2023-04-06T00:49:52;5.00;99.90
50067;DHT22;35952;52.524;13.340;2023-04-06T00:52:20;5.00;99.90
50067;DHT22;35952;52.524;13.340;2023-04-06T00:54:46;4.90;99.90
50067;DHT22;35952;52.524;13.340;2023-04-06T00:57:12;4.70;99.90
50067;DHT22;35952;52.524;13.340;2023-04-06T00:59:39;4.50;99.90
50067;DHT22;35952;52.524;13.340;2023-04-06T01:02:04;4.60;99.90
50067;DHT22;35952;52.524;13.340;2023-04-06T01:04:31;4.60;99.90
50067;DHT22;35952;52.524;13.340;2023-04-06T01:06:56;4.40;99.90
50067;DHT22;35952;52.524;13.340;2023-04-06T01:09:22;4.30;99.90
50067;DHT22;35952;52.524;13.340;2023-04-06T01:11:48;4.20;99.90
50067;DHT22;35952;52.524;13.340;2023-04-06T01:14:13;4.10;99.90
50067;DHT22;35952;52.524;13.340;2023-04-06T01:16:41;4.10;99.90
50067;DHT22;35952;52.524;13.340;2023-04-06T01:19:11;4.10;99.90
50067;DHT22;35952;52.524;13.340;2023-04-06T01:21:37;4.30;99.90
50067;DHT22;35952;52.524;13.340;2023-04-06T01:24:03;4.30;99.90
50067;DHT22;35952;52.524;13.340;2023-04-06T01:26:28;4.50;99.90
50067;DHT22;35952;52.524;13.340;2023-04-06T01:28:55;4.50;99.90
50067;DHT22;35952;52.524;13.340;2023-04-06T01:31:21;4.70;99.90
50067;DHT22;35952;52.524;13.340;2023-04-06T01:33:47;4.70;99.90
50067;DHT22;35952;52.524;13.340;2023-04-06T01:36:12;4.70;99.90
50067;DHT22;35952;52.524;13.340;2023-04-06T01:38:38;4.50;99.90
50067;DHT22;35952;52.524;13.340;2023-04-06T01:41:03;4.20;99.90
50067;DHT22;35952;52.524;13.340;2023-04-06T01:43:29;4.40;99.90
50067;DHT22;35952;52.524;13.340;2023-04-06T01:45:54;4.50;99.90
50067;DHT22;35952;52.524;13.340;2023-04-06T01:48:20;4.40;99.90
50067;DHT22;35952;52.524;13.340;2023-04-06T01:50:46;4.60;99.90
50067;DHT22;35952;52.524;13.340;2023-04-06T01:53:11;4.50;99.90
50067;DHT22;35952;52.524;13.340;2023-04-06T01:55:37;4.40;99.90
50067;DHT22;35952;52.524;13.340;2023-04-06T01:58:03;4.50;99.90
50067;DHT22;35952;52.524;13.340;2023-04-06T02:00:28;4.50;99.90
50067;DHT22;35952;52.524;13.340;2023-04-06T02:02:54;4.30;99.90
50067;DHT22;35952;52.524;13.340;2023-04-06T02:05:20;4.20;99.90
50067;DHT22;35952;52.524;13.340;2023-04-06T02:07:45;4.10;99.90
50067;DHT22;35952;52.524;13.340;2023-04-06T02:10:14;4.10;99.90
50067;DHT22;35952;52.524;13.340;2023-04-06T02:12:40;3.90;99.90
50067;DHT22;35952;52.524;13.340;2023-04-06T02:15:06;3.80;99.90
50067;DHT22;35952;52.524;13.340;2023-04-06T02:17:31;3.70;99.90
50067;DHT22;35952;52.524;13.340;2023-04-06T02:19:57;3.70;99.90
50067;DHT22;35952;52.524;13.340;2023-04-06T02:22:22;3.70;99.90
50067;DHT22;35952;52.524;13.340;2023-04-06T02:24:48;3.60;99.90
50067;DHT22;35952;52.524;13.340;2023-04-06T02:27:16;3.50;99.90
50067;DHT22;35952;52.524;13.340;2023-04-06T02:29:42;3.50;99.90
50067;DHT22;35952;52.524;13.340;2023-04-06T02:32:07;3.50;99.90
50067;DHT22;35952;52.524;13.340;2023-04-06T02:34:33;3.50;99.90
50067;DHT22;35952;52.524;13.340;2023-04-06T02:36:58;3.40;99.90
50067;DHT22;35952;52.524;13.340;2023-04-06T02:39:24;3.40;99.90
50067;DHT22;35952;52.524;13.340;2023-04-06T02:41:50;3.30;99.90
50067;DHT22;35952;52.524;13.340;2023-04-06T02:44:15;3.30;99.90
50067;DHT22;35952;52.524;13.340;2023-04-06T02:46:41;3.20;99.90
50067;DHT22;35952;52.524;13.340;2023-04-06T02:49:06;3.20;99.90
50067;DHT22;35952;52.524;13.340;2023-04-06T02:51:32;3.20;99.90
50067;DHT22;35952;52.524;13.340;2023-04-06T02:53:58;3.10;99.90
50067;DHT22;35952;52.524;13.340;2023-04-06T02:56:24;3.20;99.90
50067;DHT22;35952;52.524;13.340;2023-04-06T02:58:50;3.10;99.90
50067;DHT22;35952;52.524;13.340;2023-04-06T03:01:15;3.10;99.90
50067;DHT22;35952;52.524;13.340;2023-04-06T03:03:41;3.00;99.90
50067;DHT22;35952;52.524;13.340;2023-04-06T03:06:07;3.00;99.90
50067;DHT22;35952;52.524;13.340;2023-04-06T03:08:32;3.00;99.90
50067;DHT22;35952;52.524;13.340;2023-04-06T03:10:58;3.00;99.90
50067;DHT22;35952;52.524;13.340;2023-04-06T03:13:23;2.90;99.90
50067;DHT22;35952;52.524;13.340;2023-04-06T03:15:49;2.90;99.90
50067;DHT22;35952;52.524;13.340;2023-04-06T03:18:15;2.90;99.90
50067;DHT22;35952;52.524;13.340;2023-04-06T03:20:40;2.80;99.90
50067;DHT22;35952;52.524;13.340;2023-04-06T03:23:06;2.80;99.90
50067;DHT22;35952;52.524;13.340;2023-04-06T03:25:31;2.70;99.90
50067;DHT22;35952;52.524;13.340;2023-04-06T03:27:57;2.70;99.90
50067;DHT22;35952;52.524;13.340;2023-04-06T03:30:22;2.70;99.90
50067;DHT22;35952;52.524;13.340;2023-04-06T03:32:48;2.60;99.90
50067;DHT22;35952;52.524;13.340;2023-04-06T03:35:13;2.60;99.90
50067;DHT22;35952;52.524;13.340;2023-04-06T03:37:39;2.70;99.90
50067;DHT22;35952;52.524;13.340;2023-04-06T03:40:06;2.60;99.90
50067;DHT22;35952;52.524;13.340;2023-04-06T03:42:32;2.60;99.90
50067;DHT22;35952;52.524;13.340;2023-04-06T03:44:58;2.60;99.90
50067;DHT22;35952;52.524;13.340;2023-04-06T03:47:23;2.50;99.90
50067;DHT22;35952;52.524;13.340;2023-04-06T03:49:49;2.50;99.90
50067;DHT22;35952;52.524;13.340;2023-04-06T03:52:14;2.60;99.90
50067;DHT22;35952;52.524;13.340;2023-04-06T03:54:40;2.60;99.90
50067;DHT22;35952;52.524;13.340;2023-04-06T03:57:05;2.50;99.90
50067;DHT22;35952;52.524;13.340;2023-04-06T03:59:31;2.50;99.90
50067;DHT22;35952;52.524;13.340;2023-04-06T04:01:56;2.40;99.90
50067;DHT22;35952;52.524;13.340;2023-04-06T04:04:22;2.40;99.90
50067;DHT22;35952;52.524;13.340;2023-04-06T04:06:47;2.40;99.90
50067;DHT22;35952;52.524;13.340;2023-04-06T04:09:13;2.30;99.90
50067;DHT22;35952;52.524;13.340;2023-04-06T04:11:38;2.30;99.90
50067;DHT22;35952;52.524;13.340;2023-04-06T04:14:04;2.20;99.90
50067;DHT22;35952;52.524;13.340;2023-04-06T04:16:30;2.20;99.90
50067;DHT22;35952;52.524;13.340;2023-04-06T04:18:55;2.30;99.90
50067;DHT22;35952;52.524;13.340;2023-04-06T04:21:21;2.20;99.90
50067;DHT22;35952;52.524;13.340;2023-04-06T04:23:46;2.30;99.90
50067;DHT22;35952;52.524;13.340;2023-04-06T04:26:12;2.30;99.90
50067;DHT22;35952;52.524;13.340;2023-04-06T04:28:37;2.20;99.90
50067;DHT22;35952;52.524;13.340;2023-04-06T04:31:03;2.20;99.90
50067;DHT22;35952;52.524;13.340;2023-04-06T04:33:28;2.20;99.90
50067;DHT22;35952;52.524;13.340;2023-04-06T04:35:54;2.10;99.90
50067;DHT22;35952;52.524;13.340;2023-04-06T04:38:20;2.10;99.90
50067;DHT22;35952;52.524;13.340;2023-04-06T04:40:45;2.10;99.90
50067;DHT22;35952;52.524;13.340;2023-04-06T04:43:11;2.10;99.90
50067;DHT22;35952;52.524;13.340;2023-04-06T04:45:36;2.10;99.90
50067;DHT22;35952;52.524;13.340;2023-04-06T04:48:02;2.10;99.90
50067;DHT22;35952;52.524;13.340;2023-04-06T04:50:27;2.10;99.90
50067;DHT22;35952;52.524;13.340;2023-04-06T04:52:53;2.10;99.90
50067;DHT22;35952;52.524;13.340;2023-04-06T04:55:18;2.10;99.90
50067;DHT22;35952;52.524;13.340;2023-04-06T04:57:44;2.10;99.90
50067;DHT22;35952;52.524;13.340;2023-04-06T05:00:10;2.10;99.90
50067;DHT22;35952;52.524;13.340;2023-04-06T05:02:36;2.10;99.90
50067;DHT22;35952;52.524;13.340;2023-04-06T05:05:01;2.20;99.90
50067;DHT22;35952;52.524;13.340;2023-04-06T05:07:27;2.40;99.90
50067;DHT22;35952;52.524;13.340;2023-04-06T05:09:53;2.70;99.90
50067;DHT22;35952;52.524;13.340;2023-04-06T05:12:19;2.70;99.90
50067;DHT22;35952;52.524;13.340;2023-04-06T05:14:45;2.60;99.90
50067;DHT22;35952;52.524;13.340;2023-04-06T05:17:10;2.60;99.90
50067;DHT22;35952;52.524;13.340;2023-04-06T05:19:36;2.50;99.90
50067;DHT22;35952;52.524;13.340;2023-04-06T05:22:01;2.50;99.90
50067;DHT22;35952;52.524;13.340;2023-04-06T05:24:27;2.60;99.90
50067;DHT22;35952;52.524;13.340;2023-04-06T05:26:53;2.60;99.90
50067;DHT22;35952;52.524;13.340;2023-04-06T05:29:18;2.70;99.90
50067;DHT22;35952;52.524;13.340;2023-04-06T05:31:44;2.70;99.90
50067;DHT22;35952;52.524;13.340;2023-04-06T05:34:09;2.70;99.90
50067;DHT22;35952;52.524;13.340;2023-04-06T05:36:35;2.80;99.90
50067;DHT22;35952;52.524;13.340;2023-04-06T05:39:01;2.90;99.90
50067;DHT22;35952;52.524;13.340;2023-04-06T05:41:27;3.00;99.90
50067;DHT22;35952;52.524;13.340;2023-04-06T05:43:52;3.00;99.90
50067;DHT22;35952;52.524;13.340;2023-04-06T05:46:18;3.00;99.90
50067;DHT22;35952;52.524;13.340;2023-04-06T05:48:43;3.10;99.90
50067;DHT22;35952;52.524;13.340;2023-04-06T05:51:10;3.20;99.90
50067;DHT22;35952;52.524;13.340;2023-04-06T05:53:35;3.20;99.90
50067;DHT22;35952;52.524;13.340;2023-04-06T05:56:02;3.30;99.90
50067;DHT22;35952;52.524;13.340;2023-04-06T05:58:28;3.40;99.90
50067;DHT22;35952;52.524;13.340;2023-04-06T06:01:00;3.50;99.90
50067;DHT22;35952;52.524;13.340;2023-04-06T06:03:26;3.60;99.90
50067;DHT22;35952;52.524;13.340;2023-04-06T06:05:51;3.60;99.90
50067;DHT22;35952;52.524;13.340;2023-04-06T06:08:17;3.80;99.90
50067;DHT22;35952;52.524;13.340;2023-04-06T06:10:42;3.80;99.90
50067;DHT22;35952;52.524;13.340;2023-04-06T06:13:08;3.90;99.90
50067;DHT22;35952;52.524;13.340;2023-04-06T06:15:34;4.00;99.90
50067;DHT22;35952;52.524;13.340;2023-04-06T06:17:59;4.10;99.90
50067;DHT22;35952;52.524;13.340;2023-04-06T06:20:25;4.10;99.90
50067;DHT22;35952;52.524;13.340;2023-04-06T06:22:51;4.30;99.90
50067;DHT22;35952;52.524;13.340;2023-04-06T06:25:17;4.40;99.90
50067;DHT22;35952;52.524;13.340;2023-04-06T06:27:42;4.50;99.90
50067;DHT22;35952;52.524;13.340;2023-04-06T06:30:08;4.70;99.90
50067;DHT22;35952;52.524;13.340;2023-04-06T06:32:34;4.80;99.90
50067;DHT22;35952;52.524;13.340;2023-04-06T06:35:00;4.90;99.90
50067;DHT22;35952;52.524;13.340;2023-04-06T06:37:26;4.80;99.90
50067;DHT22;35952;52.524;13.340;2023-04-06T06:39:51;4.90;99.90
50067;DHT22;35952;52.524;13.340;2023-04-06T06:42:17;5.10;99.90
50067;DHT22;35952;52.524;13.340;2023-04-06T06:44:42;5.30;99.90
50067;DHT22;35952;52.524;13.340;2023-04-06T06:47:08;5.40;99.90
50067;DHT22;35952;52.524;13.340;2023-04-06T06:49:33;5.70;99.90
50067;DHT22;35952;52.524;13.340;2023-04-06T06:51:59;5.80;99.90
50067;DHT22;35952;52.524;13.340;2023-04-06T06:54:24;6.10;99.90
50067;DHT22;35952;52.524;13.340;2023-04-06T06:56:53;6.30;99.90
50067;DHT22;35952;52.524;13.340;2023-04-06T06:59:20;6.20;99.90
50067;DHT22;35952;52.524;13.340;2023-04-06T07:01:48;6.20;99.90
50067;DHT22;35952;52.524;13.340;2023-04-06T07:04:14;6.10;99.90
50067;DHT22;35952;52.524;13.340;2023-04-06T07:06:39;6.20;99.90
50067;DHT22;35952;52.524;13.340;2023-04-06T07:09:05;6.80;99.90
50067;DHT22;35952;52.524;13.340;2023-04-06T07:11:30;8.80;99.90
50067;DHT22;35952;52.524;13.340;2023-04-06T07:13:56;11.50;92.40
50067;DHT22;35952;52.524;13.340;2023-04-06T07:16:21;13.90;72.00
50067;DHT22;35952;52.524;13.340;2023-04-06T07:18:47;15.90;56.30
50067;DHT22;35952;52.524;13.340;2023-04-06T07:21:13;16.90;49.40
50067;DHT22;35952;52.524;13.340;2023-04-06T07:23:38;18.00;46.00
50067;DHT22;35952;52.524;13.340;2023-04-06T07:26:04;18.50;44.80
50067;DHT22;35952;52.524;13.340;2023-04-06T07:28:30;18.10;42.80
50067;DHT22;35952;52.524;13.340;2023-04-06T07:30:55;17.90;43.80
50067;DHT22;35952;52.524;13.340;2023-04-06T07:33:21;17.90;43.00
50067;DHT22;35952;52.524;13.340;2023-04-06T07:35:46;17.30;41.80
50067;DHT22;35952;52.524;13.340;2023-04-06T07:38:12;16.80;42.70
50067;DHT22;35952;52.524;13.340;2023-04-06T07:40:38;17.30;41.90
50067;DHT22;35952;52.524;13.340;2023-04-06T07:43:03;17.30;41.70
50067;DHT22;35952;52.524;13.340;2023-04-06T07:45:29;18.30;40.80
50067;DHT22;35952;52.524;13.340;2023-04-06T07:47:55;19.10;38.70
50067;DHT22;35952;52.524;13.340;2023-04-06T07:50:20;16.90;39.00
50067;DHT22;35952;52.524;13.340;2023-04-06T07:52:46;16.70;40.40
50067;DHT22;35952;52.524;13.340;2023-04-06T07:55:12;16.90;40.60
50067;DHT22;35952;52.524;13.340;2023-04-06T07:57:37;18.60;40.70
50067;DHT22;35952;52.524;13.340;2023-04-06T08:00:03;20.30;37.80
50067;DHT22;35952;52.524;13.340;2023-04-06T08:02:31;20.20;36.20
50067;DHT22;35952;52.524;13.340;2023-04-06T08:04:56;19.40;36.40
50067;DHT22;35952;52.524;13.340;2023-04-06T08:07:22;19.80;36.80
50067;DHT22;35952;52.524;13.340;2023-04-06T08:09:47;18.10;36.30
50067;DHT22;35952;52.524;13.340;2023-04-06T08:12:13;18.00;38.20
50067;DHT22;35952;52.524;13.340;2023-04-06T08:14:39;21.00;37.60
50067;DHT22;35952;52.524;13.340;2023-04-06T08:17:04;20.70;34.20
50067;DHT22;35952;52.524;13.340;2023-04-06T08:19:30;20.50;35.40
50067;DHT22;35952;52.524;13.340;2023-04-06T08:21:55;22.80;35.60
50067;DHT22;35952;52.524;13.340;2023-04-06T08:24:21;22.20;32.70
50067;DHT22;35952;52.524;13.340;2023-04-06T08:26:46;21.40;34.10
50067;DHT22;35952;52.524;13.340;2023-04-06T08:29:12;21.60;34.30
50067;DHT22;35952;52.524;13.340;2023-04-06T08:31:37;22.00;32.40
50067;DHT22;35952;52.524;13.340;2023-04-06T08:34:04;21.30;33.30
50067;DHT22;35952;52.524;13.340;2023-04-06T08:36:31;22.20;33.80
50067;DHT22;35952;52.524;13.340;2023-04-06T08:38:56;23.40;31.70
50067;DHT22;35952;52.524;13.340;2023-04-06T08:41:22;23.10;30.80
50067;DHT22;35952;52.524;13.340;2023-04-06T08:46:21;20.90;32.50
50067;DHT22;35952;52.524;13.340;2023-04-06T08:48:48;17.80;34.80
50067;DHT22;35952;52.524;13.340;2023-04-06T08:51:15;17.70;35.60
50067;DHT22;35952;52.524;13.340;2023-04-06T08:53:40;16.00;36.30
50067;DHT22;35952;52.524;13.340;2023-04-06T08:56:07;14.70;37.60
50067;DHT22;35952;52.524;13.340;2023-04-06T08:58:36;12.90;38.80
50067;DHT22;35952;52.524;13.340;2023-04-06T09:01:06;13.10;41.10
50067;DHT22;35952;52.524;13.340;2023-04-06T09:03:36;11.50;41.30
50067;DHT22;35952;52.524;13.340;2023-04-06T09:06:02;11.50;43.10
50067;DHT22;35952;52.524;13.340;2023-04-06T09:08:29;11.90;43.30
50067;DHT22;35952;52.524;13.340;2023-04-06T09:10:55;11.80;42.30
50067;DHT22;35952;52.524;13.340;2023-04-06T09:13:20;12.90;41.10
50067;DHT22;35952;52.524;13.340;2023-04-06T09:15:46;13.20;39.50
50067;DHT22;35952;52.524;13.340;2023-04-06T09:18:11;15.20;38.70
50067;DHT22;35952;52.524;13.340;2023-04-06T09:20:37;14.80;37.90
50067;DHT22;35952;52.524;13.340;2023-04-06T09:23:02;15.20;36.20
50067;DHT22;35952;52.524;13.340;2023-04-06T09:25:28;17.50;36.00
50067;DHT22;35952;52.524;13.340;2023-04-06T09:28:04;18.60;33.50
50067;DHT22;35952;52.524;13.340;2023-04-06T09:30:29;19.50;32.50
50067;DHT22;35952;52.524;13.340;2023-04-06T09:32:56;17.80;32.10
50067;DHT22;35952;52.524;13.340;2023-04-06T09:35:23;19.30;33.30
50067;DHT22;35952;52.524;13.340;2023-04-06T09:37:50;18.90;32.00
50067;DHT22;35952;52.524;13.340;2023-04-06T09:40:17;18.50;32.00
50067;DHT22;35952;52.524;13.340;2023-04-06T09:42:48;19.20;32.40
50067;DHT22;35952;52.524;13.340;2023-04-06T09:45:15;20.80;32.50
50067;DHT22;35952;52.524;13.340;2023-04-06T09:47:44;20.40;30.60
50067;DHT22;35952;52.524;13.340;2023-04-06T09:50:12;21.90;30.80
50067;DHT22;35952;52.524;13.340;2023-04-06T09:52:40;22.20;29.50
50067;DHT22;35952;52.524;13.340;2023-04-06T09:55:08;22.80;29.70
50067;DHT22;35952;52.524;13.340;2023-04-06T09:57:52;22.30;28.30
50067;DHT22;35952;52.524;13.340;2023-04-06T10:00:22;23.10;27.70
50067;DHT22;35952;52.524;13.340;2023-04-06T10:03:14;23.70;27.70
50067;DHT22;35952;52.524;13.340;2023-04-06T10:06:22;23.40;28.10
50067;DHT22;35952;52.524;13.340;2023-04-06T10:08:38;22.00;28.50
50067;DHT22;35952;52.524;13.340;2023-04-06T10:11:09;21.40;29.30
50067;DHT22;35952;52.524;13.340;2023-04-06T10:13:35;22.80;29.50
50067;DHT22;35952;52.524;13.340;2023-04-06T10:16:01;23.40;28.60
50067;DHT22;35952;52.524;13.340;2023-04-06T10:18:27;26.10;26.10
50067;DHT22;35952;52.524;13.340;2023-04-06T10:21:08;22.00;27.10
50067;DHT22;35952;52.524;13.340;2023-04-06T10:23:41;22.30;27.90
50067;DHT22;35952;52.524;13.340;2023-04-06T10:26:13;21.70;27.60
50067;DHT22;35952;52.524;13.340;2023-04-06T10:28:41;21.90;27.20
50067;DHT22;35952;52.524;13.340;2023-04-06T10:31:07;20.30;28.10
50067;DHT22;35952;52.524;13.340;2023-04-06T10:33:33;22.00;28.30
50067;DHT22;35952;52.524;13.340;2023-04-06T10:36:15;20.00;27.40
50067;DHT22;35952;52.524;13.340;2023-04-06T10:38:41;19.70;27.60
50067;DHT22;35952;52.524;13.340;2023-04-06T10:41:12;18.10;28.70
50067;DHT22;35952;52.524;13.340;2023-04-06T10:43:39;17.80;29.00
50067;DHT22;35952;52.524;13.340;2023-04-06T10:46:07;17.00;29.70
50067;DHT22;35952;52.524;13.340;2023-04-06T10:48:43;16.20;31.20
50067;DHT22;35952;52.524;13.340;2023-04-06T10:51:15;17.10;31.80
50067;DHT22;35952;52.524;13.340;2023-04-06T10:53:42;16.30;29.90
50067;DHT22;35952;52.524;13.340;2023-04-06T10:56:16;16.80;30.10
50067;DHT22;35952;52.524;13.340;2023-04-06T10:58:48;18.90;30.70
50067;DHT22;35952;52.524;13.340;2023-04-06T11:01:19;18.60;28.90
50067;DHT22;35952;52.524;13.340;2023-04-06T11:03:46;20.90;27.80
50067;DHT22;35952;52.524;13.340;2023-04-06T11:06:18;22.20;27.00
50067;DHT22;35952;52.524;13.340;2023-04-06T11:08:44;21.40;27.30
50067;DHT22;35952;52.524;13.340;2023-04-06T11:11:15;23.30;26.20
50067;DHT22;35952;52.524;13.340;2023-04-06T11:13:44;21.80;26.00
50067;DHT22;35952;52.524;13.340;2023-04-06T11:16:20;20.50;26.30
50067;DHT22;35952;52.524;13.340;2023-04-06T11:19:04;18.10;27.40
50067;DHT22;35952;52.524;13.340;2023-04-06T11:21:40;18.30;28.50
50067;DHT22;35952;52.524;13.340;2023-04-06T11:24:20;18.30;29.40
50067;DHT22;35952;52.524;13.340;2023-04-06T11:26:50;18.80;29.50
50067;DHT22;35952;52.524;13.340;2023-04-06T11:29:19;20.50;28.30
50067;DHT22;35952;52.524;13.340;2023-04-06T11:31:48;20.40;28.00
50067;DHT22;35952;52.524;13.340;2023-04-06T11:34:18;21.70;28.30
50067;DHT22;35952;52.524;13.340;2023-04-06T11:36:46;21.60;27.80
50067;DHT22;35952;52.524;13.340;2023-04-06T11:39:19;20.00;27.30
50067;DHT22;35952;52.524;13.340;2023-04-06T11:41:48;19.90;28.00
50067;DHT22;35952;52.524;13.340;2023-04-06T11:44:15;19.90;27.40
50067;DHT22;35952;52.524;13.340;2023-04-06T11:46:40;19.00;27.50
50067;DHT22;35952;52.524;13.340;2023-04-06T11:49:06;18.60;28.10
50067;DHT22;35952;52.524;13.340;2023-04-06T11:51:36;18.60;29.00
50067;DHT22;35952;52.524;13.340;2023-04-06T11:54:02;19.90;28.40
50067;DHT22;35952;52.524;13.340;2023-04-06T11:56:30;21.50;28.00
50067;DHT22;35952;52.524;13.340;2023-04-06T11:58:57;24.00;26.30
50067;DHT22;35952;52.524;13.340;2023-04-06T12:01:24;21.40;25.90
50067;DHT22;35952;52.524;13.340;2023-04-06T12:03:52;21.40;27.30
50067;DHT22;35952;52.524;13.340;2023-04-06T12:06:18;21.60;26.80
50067;DHT22;35952;52.524;13.340;2023-04-06T12:08:43;23.30;27.20
50067;DHT22;35952;52.524;13.340;2023-04-06T12:11:10;24.60;26.30
50067;DHT22;35952;52.524;13.340;2023-04-06T12:13:35;23.50;24.80
50067;DHT22;35952;52.524;13.340;2023-04-06T12:16:01;22.30;25.50
50067;DHT22;35952;52.524;13.340;2023-04-06T12:18:26;20.80;25.70
50067;DHT22;35952;52.524;13.340;2023-04-06T12:20:52;20.80;26.70
50067;DHT22;35952;52.524;13.340;2023-04-06T12:23:18;20.50;27.90
50067;DHT22;35952;52.524;13.340;2023-04-06T12:25:44;19.20;27.30
50067;DHT22;35952;52.524;13.340;2023-04-06T12:28:10;18.50;28.10
50067;DHT22;35952;52.524;13.340;2023-04-06T12:30:35;17.10;28.50
50067;DHT22;35952;52.524;13.340;2023-04-06T12:33:01;16.00;29.80
50067;DHT22;35952;52.524;13.340;2023-04-06T12:35:27;15.70;30.10
50067;DHT22;35952;52.524;13.340;2023-04-06T12:37:52;16.60;30.30
50067;DHT22;35952;52.524;13.340;2023-04-06T12:40:18;16.20;30.40
50067;DHT22;35952;52.524;13.340;2023-04-06T12:42:43;14.60;30.00
50067;DHT22;35952;52.524;13.340;2023-04-06T12:45:11;15.40;31.70
50067;DHT22;35952;52.524;13.340;2023-04-06T12:47:37;15.90;31.00
50067;DHT22;35952;52.524;13.340;2023-04-06T12:50:03;17.60;30.40
50067;DHT22;35952;52.524;13.340;2023-04-06T12:52:29;19.80;29.90
50067;DHT22;35952;52.524;13.340;2023-04-06T12:54:56;20.90;27.30
50067;DHT22;35952;52.524;13.340;2023-04-06T12:57:22;19.00;26.90
50067;DHT22;35952;52.524;13.340;2023-04-06T12:59:48;19.40;27.30
50067;DHT22;35952;52.524;13.340;2023-04-06T13:02:13;18.70;26.50
50067;DHT22;35952;52.524;13.340;2023-04-06T13:04:39;19.60;27.40
50067;DHT22;35952;52.524;13.340;2023-04-06T13:07:05;18.10;27.40
50067;DHT22;35952;52.524;13.340;2023-04-06T13:09:30;17.80;27.90
50067;DHT22;35952;52.524;13.340;2023-04-06T13:11:56;16.20;29.40
50067;DHT22;35952;52.524;13.340;2023-04-06T13:14:21;15.50;30.90
50067;DHT22;35952;52.524;13.340;2023-04-06T13:16:47;15.50;31.10
50067;DHT22;35952;52.524;13.340;2023-04-06T13:19:12;15.50;32.10
50067;DHT22;35952;52.524;13.340;2023-04-06T13:21:39;16.20;31.90
50067;DHT22;35952;52.524;13.340;2023-04-06T13:24:04;19.20;29.60
50067;DHT22;35952;52.524;13.340;2023-04-06T13:26:31;22.40;28.50
50067;DHT22;35952;52.524;13.340;2023-04-06T13:28:56;23.70;25.60
50067;DHT22;35952;52.524;13.340;2023-04-06T13:31:22;24.30;26.80
50067;DHT22;35952;52.524;13.340;2023-04-06T13:33:48;25.50;25.10
50067;DHT22;35952;52.524;13.340;2023-04-06T13:36:13;26.20;24.30
50067;DHT22;35952;52.524;13.340;2023-04-06T13:38:39;24.40;24.10
50067;DHT22;35952;52.524;13.340;2023-04-06T13:41:05;24.40;25.70
50067;DHT22;35952;52.524;13.340;2023-04-06T13:43:30;27.00;24.00
50067;DHT22;35952;52.524;13.340;2023-04-06T13:45:57;26.80;23.20
50067;DHT22;35952;52.524;13.340;2023-04-06T13:48:25;26.40;23.00
50067;DHT22;35952;52.524;13.340;2023-04-06T13:50:51;24.30;22.80
50067;DHT22;35952;52.524;13.340;2023-04-06T13:53:18;25.40;24.30
50067;DHT22;35952;52.524;13.340;2023-04-06T13:55:47;24.60;24.20
50067;DHT22;35952;52.524;13.340;2023-04-06T13:58:17;24.70;24.10
50067;DHT22;35952;52.524;13.340;2023-04-06T14:00:42;26.40;24.00
50067;DHT22;35952;52.524;13.340;2023-04-06T14:03:07;26.60;22.70
50067;DHT22;35952;52.524;13.340;2023-04-06T14:05:33;22.90;23.50
50067;DHT22;35952;52.524;13.340;2023-04-06T14:07:59;24.30;24.80
50067;DHT22;35952;52.524;13.340;2023-04-06T14:10:24;24.10;25.50
50067;DHT22;35952;52.524;13.340;2023-04-06T14:12:52;23.90;24.60
50067;DHT22;35952;52.524;13.340;2023-04-06T14:15:18;22.70;25.40
50067;DHT22;35952;52.524;13.340;2023-04-06T14:17:44;22.70;25.20
50067;DHT22;35952;52.524;13.340;2023-04-06T14:20:10;21.90;25.70
50067;DHT22;35952;52.524;13.340;2023-04-06T14:22:39;21.90;26.00
50067;DHT22;35952;52.524;13.340;2023-04-06T14:25:06;21.60;25.80
50067;DHT22;35952;52.524;13.340;2023-04-06T14:27:32;23.70;25.30
50067;DHT22;35952;52.524;13.340;2023-04-06T14:29:57;25.40;25.30
50067;DHT22;35952;52.524;13.340;2023-04-06T14:32:23;25.60;24.60
50067;DHT22;35952;52.524;13.340;2023-04-06T14:34:49;26.10;24.60
50067;DHT22;35952;52.524;13.340;2023-04-06T14:37:15;25.80;24.70
50067;DHT22;35952;52.524;13.340;2023-04-06T14:39:42;25.90;25.00
50067;DHT22;35952;52.524;13.340;2023-04-06T14:42:08;25.40;25.00
50067;DHT22;35952;52.524;13.340;2023-04-06T14:44:33;26.80;24.00
50067;DHT22;35952;52.524;13.340;2023-04-06T14:47:02;27.00;24.20
50067;DHT22;35952;52.524;13.340;2023-04-06T14:49:29;25.70;23.90
50067;DHT22;35952;52.524;13.340;2023-04-06T14:51:55;27.00;23.90
50067;DHT22;35952;52.524;13.340;2023-04-06T14:54:21;26.60;23.90
50067;DHT22;35952;52.524;13.340;2023-04-06T14:56:46;26.10;23.70
50067;DHT22;35952;52.524;13.340;2023-04-06T14:59:12;26.00;23.80
50067;DHT22;35952;52.524;13.340;2023-04-06T15:01:37;24.80;24.30
50067;DHT22;35952;52.524;13.340;2023-04-06T15:04:03;22.30;25.00
50067;DHT22;35952;52.524;13.340;2023-04-06T15:06:29;20.80;26.50
50067;DHT22;35952;52.524;13.340;2023-04-06T15:08:55;19.90;26.80
50067;DHT22;35952;52.524;13.340;2023-04-06T15:11:21;18.50;27.70
50067;DHT22;35952;52.524;13.340;2023-04-06T15:13:47;17.40;28.70
50067;DHT22;35952;52.524;13.340;2023-04-06T15:16:12;16.10;30.00
50067;DHT22;35952;52.524;13.340;2023-04-06T15:18:39;15.40;30.50
50067;DHT22;35952;52.524;13.340;2023-04-06T15:21:05;14.60;31.90